createdAt,value
2019-03-27T10:20:18.928Z,16736.00
2019-03-27T10:21:18.924Z,16320.00
2019-03-27T10:22:18.848Z,15936.00
2019-03-27T10:23:18.812Z,15268.00
2019-03-27T10:24:18.772Z,14688.00
2019-03-27T10:25:42.839Z,14096.00
2019-03-27T10:26:42.953Z,13592.00
2019-03-27T10:27:42.713Z,12980.00
2019-03-27T10:28:42.661Z,12396.00
2019-03-27T10:31:05.725Z,11280.00
2019-03-27T10:32:05.735Z,11012.00
2019-03-27T10:33:05.649Z,10880.00
2019-03-27T10:34:05.663Z,10684.00
2019-03-27T10:35:05.598Z,10516.00
2019-03-27T10:36:05.600Z,10348.00
2019-03-27T10:37:05.563Z,10208.00
2019-03-27T10:38:05.496Z,10044.00
2019-03-27T10:39:05.426Z,9832.00
2019-03-27T10:40:05.415Z,9660.00
2019-03-27T10:41:05.486Z,9516.00
2019-03-27T10:42:05.379Z,9396.00
2019-03-27T10:43:05.310Z,9272.00
2019-03-27T10:44:05.315Z,9208.00
2019-03-27T10:45:05.257Z,9212.00
2019-03-27T10:46:05.247Z,9196.00
2019-03-27T10:47:05.196Z,9152.00
2019-03-27T10:48:05.177Z,9156.00
2019-03-27T10:49:05.159Z,9228.00
2019-03-27T10:50:16.936Z,9308.00
2019-03-27T10:51:06.075Z,9348.00
2019-03-27T10:52:05.058Z,9368.00
2019-03-27T10:53:05.046Z,9384.00
2019-03-27T10:54:04.991Z,9420.00
2019-03-27T10:55:04.962Z,9564.00
2019-03-27T10:56:04.915Z,9768.00
2019-03-27T10:57:04.951Z,9988.00
2019-03-27T10:58:04.881Z,10296.00
2019-03-27T10:59:04.840Z,10592.00
2019-03-27T11:00:04.840Z,10944.00
2019-03-27T11:01:07.181Z,11124.00
2019-03-27T11:02:04.965Z,11068.00
2019-03-27T11:03:04.766Z,10920.00
2019-03-27T11:04:04.730Z,10716.00
2019-03-27T11:05:04.700Z,10652.00
2019-03-27T11:06:04.687Z,10788.00
2019-03-27T11:07:04.700Z,10972.00
2019-03-27T11:08:04.755Z,11300.00
2019-03-27T11:09:04.620Z,11656.00
2019-03-27T11:10:04.582Z,12840.00
2019-03-27T11:11:04.573Z,13896.00
2019-03-27T11:12:04.546Z,12532.00
2019-03-27T11:13:04.592Z,12260.00
2019-03-27T11:14:04.544Z,12104.00
2019-03-27T11:15:04.441Z,11972.00
2019-03-27T11:16:04.489Z,11896.00
2019-03-27T11:17:04.426Z,11992.00
2019-03-27T11:18:04.342Z,12664.00
2019-03-27T11:19:04.332Z,12612.00
2019-03-27T11:20:04.267Z,12776.00
2019-03-27T11:21:04.263Z,12952.00
2019-03-27T11:22:04.284Z,13424.00
2019-03-27T11:23:04.173Z,14172.00
2019-03-27T11:24:04.137Z,14520.00
2019-03-27T11:25:04.121Z,16064.00
2019-03-27T11:26:04.076Z,18400.00
2019-03-27T11:27:04.028Z,16960.00
2019-03-27T11:28:04.055Z,17472.00
2019-03-27T11:29:03.955Z,17152.00
2019-03-27T11:30:03.899Z,18816.00
2019-03-27T11:31:03.916Z,19424.00
2019-03-27T11:32:03.916Z,20384.00
2019-03-27T11:33:03.933Z,23680.00
2019-03-27T11:34:03.854Z,23680.00
2019-03-27T11:35:03.799Z,25184.00
2019-03-27T11:36:03.766Z,22336.00
2019-03-27T11:37:03.760Z,20128.00
2019-03-27T11:38:03.714Z,19520.00
2019-03-27T11:39:03.662Z,19424.00
2019-03-27T11:40:03.612Z,20000.00
2019-03-27T11:41:03.577Z,19776.00
2019-03-27T11:42:03.541Z,19136.00
2019-03-27T11:43:03.534Z,17856.00
2019-03-27T11:44:03.522Z,16672.00
2019-03-27T11:45:03.375Z,15744.00
2019-03-27T11:46:03.355Z,14884.00
2019-03-27T11:47:03.287Z,14412.00
2019-03-27T11:48:03.296Z,14068.00
2019-03-27T11:49:03.234Z,13804.00
2019-03-27T11:50:03.190Z,13664.00
2019-03-27T11:51:03.122Z,13580.00
2019-03-27T11:52:03.109Z,13512.00
2019-03-27T11:53:03.063Z,13356.00
2019-03-27T11:54:03.052Z,13052.00
2019-03-27T11:55:02.969Z,12684.00
2019-03-27T11:56:03.455Z,12364.00
2019-03-27T11:57:02.910Z,12100.00
2019-03-27T11:58:02.909Z,11904.00
2019-03-27T11:59:02.830Z,11752.00
2019-03-27T12:00:02.834Z,11644.00
2019-03-27T12:01:02.773Z,11484.00
2019-03-27T12:02:02.725Z,11212.00
2019-03-27T12:03:02.698Z,10908.00
2019-03-27T12:04:02.649Z,10612.00
2019-03-27T12:05:02.636Z,10380.00
2019-03-27T12:06:03.136Z,10200.00
2019-03-27T12:07:02.694Z,10024.00
2019-03-27T12:08:02.725Z,9868.00
2019-03-27T12:09:02.493Z,9724.00
2019-03-27T12:10:02.469Z,9628.00
2019-03-27T12:11:02.446Z,9568.00
2019-03-27T12:12:02.394Z,9504.00
2019-03-27T12:13:02.385Z,9412.00
2019-03-27T12:14:02.552Z,9300.00
2019-03-27T12:15:02.317Z,9192.00
2019-03-27T12:16:02.307Z,9060.00
2019-03-27T12:17:02.259Z,8920.00
2019-03-27T12:18:02.236Z,8780.00
2019-03-27T12:19:02.220Z,8632.00
2019-03-27T12:20:02.330Z,8472.00
2019-03-27T12:21:02.159Z,8324.00
2019-03-27T12:22:02.111Z,8200.00
2019-03-27T12:23:02.162Z,8116.00
2019-03-27T12:24:02.073Z,8068.00
2019-03-27T12:25:02.058Z,8060.00
2019-03-27T12:26:02.011Z,8116.00
2019-03-27T12:27:02.027Z,8160.00
2019-03-27T12:28:02.050Z,8208.00
2019-03-27T12:29:01.980Z,8272.00
2019-03-27T12:30:01.950Z,8340.00
2019-03-27T12:31:02.015Z,8392.00
2019-03-27T12:32:01.931Z,8444.00
2019-03-27T12:33:01.909Z,8488.00
2019-03-27T12:34:01.879Z,8524.00
2019-03-27T12:35:01.876Z,8588.00
2019-03-27T12:36:01.845Z,8676.00
2019-03-27T12:37:01.858Z,8720.00
2019-03-27T12:38:04.292Z,8872.00
2019-03-27T12:39:01.805Z,8996.00
2019-03-27T12:40:01.781Z,9096.00
2019-03-27T12:41:01.766Z,9168.00
2019-03-27T12:42:01.759Z,9224.00
2019-03-27T12:43:01.782Z,9320.00
2019-03-27T12:44:02.709Z,9444.00
2019-03-27T12:45:02.331Z,9620.00
2019-03-27T12:46:01.700Z,9852.00
2019-03-27T12:47:01.678Z,10100.00
2019-03-27T12:48:01.663Z,10324.00
2019-03-27T12:49:01.631Z,10532.00
2019-03-27T12:50:01.624Z,10720.00
2019-03-27T12:51:12.258Z,10840.00
2019-03-27T12:52:05.419Z,10920.00
2019-03-27T12:53:01.617Z,10960.00
2019-03-27T12:54:01.562Z,10940.00
2019-03-27T12:55:01.513Z,10932.00
2019-03-27T12:56:01.483Z,10900.00
2019-03-27T12:57:01.493Z,10868.00
2019-03-27T12:58:01.465Z,10816.00
2019-03-27T12:59:01.410Z,10784.00
2019-03-27T13:00:01.442Z,10796.00
2019-03-27T13:01:01.369Z,10896.00
2019-03-27T13:02:01.353Z,11100.00
2019-03-27T13:03:01.403Z,11344.00
2019-03-27T13:03:53.434Z,11508.00
2019-03-27T13:04:53.434Z,11640.00
2019-03-27T13:05:53.412Z,11716.00
2019-03-27T13:06:53.433Z,11732.00
2019-03-27T13:07:53.403Z,11812.00
2019-03-27T13:08:53.399Z,11976.00
2019-03-27T13:09:53.398Z,12196.00
2019-03-27T13:10:53.376Z,12376.00
2019-03-27T13:11:53.374Z,12504.00
2019-03-27T13:12:53.337Z,12564.00
2019-03-27T13:13:53.359Z,12568.00
2019-03-27T13:14:53.314Z,12692.00
2019-03-27T13:15:53.378Z,12496.00
2019-03-27T13:16:53.281Z,12944.00
2019-03-27T13:17:53.461Z,12920.00
2019-03-27T13:18:53.456Z,13052.00
2019-03-27T13:19:53.273Z,12692.00
2019-03-27T13:20:53.295Z,12796.00
2019-03-27T13:21:53.253Z,12572.00
2019-03-27T13:22:53.267Z,12216.00
2019-03-27T13:23:53.308Z,11780.00
2019-03-27T13:24:53.223Z,11396.00
2019-03-27T13:25:53.219Z,11112.00
2019-03-27T13:26:53.238Z,10912.00
2019-03-27T13:27:53.180Z,10760.00
2019-03-27T13:28:53.200Z,10468.00
2019-03-27T13:29:53.413Z,10232.00
2019-03-27T13:30:53.146Z,10052.00
2019-03-27T13:31:53.140Z,9960.00
2019-03-27T13:32:53.129Z,9944.00
2019-03-27T13:33:53.136Z,9808.00
2019-03-27T13:34:53.114Z,9544.00
2019-03-27T13:35:53.145Z,9204.00
2019-03-27T13:36:53.080Z,8916.00
2019-03-27T13:37:53.131Z,8792.00
2019-03-27T13:38:53.073Z,8736.00
2019-03-27T13:39:53.083Z,8768.00
2019-03-27T13:40:53.041Z,8824.00
2019-03-27T13:41:53.017Z,9420.00
2019-03-27T13:42:53.001Z,9016.00
2019-03-27T13:43:53.035Z,8932.00
2019-03-27T13:44:52.986Z,8988.00
2019-03-27T13:45:52.992Z,9116.00
2019-03-27T13:46:52.992Z,9196.00
2019-03-27T13:47:52.965Z,9280.00
2019-03-27T13:48:52.973Z,9364.00
2019-03-27T13:49:52.944Z,9424.00
2019-03-27T13:50:52.921Z,9500.00
2019-03-27T13:51:52.901Z,9664.00
2019-03-27T13:52:52.895Z,9808.00
2019-03-27T13:53:52.897Z,9972.00
2019-03-27T13:54:52.875Z,10188.00
2019-03-27T13:55:52.865Z,10436.00
2019-03-27T13:56:52.876Z,10772.00
2019-03-27T13:57:52.863Z,10724.00
2019-03-27T13:58:52.885Z,10768.00
2019-03-27T13:59:52.817Z,10796.00
2019-03-27T14:00:52.826Z,10264.00
2019-03-27T14:01:52.801Z,9968.00
2019-03-27T14:02:52.836Z,9748.00
2019-03-27T14:03:52.823Z,9632.00
2019-03-27T14:04:52.811Z,9596.00
2019-03-27T14:05:52.760Z,9528.00
2019-03-27T14:06:52.740Z,9428.00
2019-03-27T14:07:52.752Z,9356.00
2019-03-27T14:08:52.762Z,9340.00
2019-03-27T14:09:52.711Z,9880.00
2019-03-27T14:10:52.692Z,9856.00
2019-03-27T14:11:52.706Z,9812.00
2019-03-27T14:12:52.681Z,9468.00
2019-03-27T14:13:52.704Z,9520.00
2019-03-27T14:14:52.652Z,9520.00
2019-03-27T14:15:52.662Z,9404.00
2019-03-27T14:16:52.638Z,9236.00
2019-03-27T14:17:52.651Z,9012.00
2019-03-27T14:18:52.668Z,8820.00
2019-03-27T14:19:52.611Z,8720.00
2019-03-27T14:20:52.620Z,8644.00
2019-03-27T14:21:54.921Z,8552.00
2019-03-27T14:22:52.569Z,8512.00
2019-03-27T14:23:52.591Z,8452.00
2019-03-27T14:24:52.578Z,8324.00
2019-03-27T14:25:52.553Z,8180.00
2019-03-27T14:26:52.543Z,8096.00
2019-03-27T14:27:52.508Z,8124.00
2019-03-27T14:28:52.567Z,8160.00
2019-03-27T14:29:52.503Z,8132.00
2019-03-27T14:30:52.496Z,8056.00
2019-03-27T14:31:52.468Z,7996.00
2019-03-27T14:32:52.459Z,8124.00
2019-03-27T14:33:52.440Z,8256.00
2019-03-27T14:34:53.916Z,8328.00
2019-03-27T14:35:52.425Z,8368.00
2019-03-27T14:36:52.437Z,8268.00
2019-03-27T14:37:52.415Z,8412.00
2019-03-27T14:38:52.400Z,8396.00
2019-03-27T14:39:52.389Z,8324.00
2019-03-27T14:40:52.359Z,8200.00
2019-03-27T14:41:52.379Z,8064.00
2019-03-27T14:42:52.343Z,7956.00
2019-03-27T14:43:52.366Z,7728.00
2019-03-27T14:44:52.343Z,7616.00
2019-03-27T14:45:52.315Z,7500.00
2019-03-27T14:46:52.327Z,7368.00
2019-03-27T14:47:52.309Z,7316.00
2019-03-27T14:48:52.273Z,7212.00
2019-03-27T14:49:52.299Z,7100.00
2019-03-27T14:50:52.257Z,6984.00
2019-03-27T14:51:52.261Z,6856.00
2019-03-27T14:52:52.226Z,6660.00
2019-03-27T14:53:52.253Z,6468.00
2019-03-27T14:54:52.242Z,6356.00
2019-03-27T14:55:52.212Z,6256.00
2019-03-27T14:56:52.214Z,6152.00
2019-03-27T14:57:52.189Z,6020.00
2019-03-27T14:58:52.167Z,5876.00
2019-03-27T14:59:52.205Z,5648.00
2019-03-27T15:00:52.135Z,5444.00
2019-03-27T15:01:52.143Z,5216.00
2019-03-27T15:02:52.124Z,5092.00
2019-03-27T15:03:52.118Z,4984.00
2019-03-27T15:04:52.153Z,4832.00
2019-03-27T15:05:52.089Z,4680.00
2019-03-27T15:06:52.094Z,4536.00
2019-03-27T15:07:52.084Z,4488.00
2019-03-27T15:08:52.089Z,4492.00
2019-03-27T15:09:52.075Z,4432.00
2019-03-27T15:10:52.045Z,4448.00
2019-03-27T15:11:52.050Z,4480.00
2019-03-27T15:12:52.014Z,4476.00
2019-03-27T15:13:52.020Z,4640.00
2019-03-27T15:14:52.051Z,4788.00
2019-03-27T15:15:51.992Z,4848.00
2019-03-27T15:16:51.988Z,4944.00
2019-03-27T15:17:52.013Z,5008.00
2019-03-27T15:18:52.718Z,5104.00
2019-03-27T15:19:51.974Z,5156.00
2019-03-27T15:20:51.934Z,5132.00
2019-03-27T15:21:51.934Z,5136.00
2019-03-27T15:22:51.925Z,4968.00
2019-03-27T15:23:51.895Z,4964.00
2019-03-27T15:24:51.891Z,5000.00
2019-03-27T15:25:51.864Z,5044.00
2019-03-27T15:26:51.892Z,5184.00
2019-03-27T15:27:51.852Z,5336.00
2019-03-27T15:28:51.856Z,5488.00
2019-03-27T15:29:51.907Z,5496.00
2019-03-27T15:30:51.832Z,5416.00
2019-03-27T15:31:51.821Z,5132.00
2019-03-27T15:32:51.842Z,5056.00
2019-03-27T15:33:51.781Z,5328.00
2019-03-27T15:34:51.837Z,5384.00
2019-03-27T15:35:51.761Z,5272.00
2019-03-27T15:36:51.756Z,5112.00
2019-03-27T15:37:51.767Z,5088.00
2019-03-27T15:38:51.757Z,5288.00
2019-03-27T15:39:51.760Z,5448.00
2019-03-27T15:40:51.717Z,5616.00
2019-03-27T15:41:51.758Z,5648.00
2019-03-27T15:42:51.822Z,5640.00
2019-03-27T15:43:51.671Z,5536.00
2019-03-27T15:44:52.634Z,5344.00
2019-03-27T15:45:51.670Z,5044.00
2019-03-27T15:46:51.648Z,4916.00
2019-03-27T15:47:51.655Z,4780.00
2019-03-27T15:48:51.636Z,4732.00
2019-03-27T15:49:51.613Z,4644.00
2019-03-27T15:50:58.444Z,4444.00
2019-03-27T15:51:52.611Z,4308.00
2019-03-27T15:52:51.580Z,4192.00
2019-03-27T15:53:51.558Z,4064.00
2019-03-27T15:54:51.571Z,3920.00
2019-03-27T15:55:51.569Z,3828.00
2019-03-27T15:56:51.582Z,3824.00
2019-03-27T15:57:51.536Z,3868.00
2019-03-27T15:58:51.560Z,3976.00
2019-03-27T15:59:51.499Z,3928.00
2019-03-27T16:00:51.557Z,3984.00
2019-03-27T16:01:51.496Z,4012.00
2019-03-27T16:02:51.472Z,4008.00
2019-03-27T16:03:51.452Z,3980.00
2019-03-27T16:04:51.467Z,3936.00
2019-03-27T16:05:51.483Z,3964.00
2019-03-27T16:06:51.449Z,4068.00
2019-03-27T16:07:51.438Z,4144.00
2019-03-27T16:08:51.419Z,4224.00
2019-03-27T16:09:51.430Z,4248.00
2019-03-27T16:10:51.434Z,4184.00
2019-03-27T16:11:51.423Z,4260.00
2019-03-27T16:12:51.376Z,4272.00
2019-03-27T16:13:51.347Z,4188.00
2019-03-27T16:14:51.384Z,4096.00
2019-03-27T16:15:51.419Z,4124.00
2019-03-27T16:17:06.802Z,4132.00
2019-03-27T16:17:52.316Z,4144.00
2019-03-27T16:18:51.309Z,4148.00
2019-03-27T16:19:51.307Z,4068.00
2019-03-27T16:20:51.298Z,3936.00
2019-03-27T16:21:51.279Z,3764.00
2019-03-27T16:22:51.421Z,3596.00
2019-03-27T16:24:05.501Z,3324.00
2019-03-27T16:24:52.321Z,3064.00
2019-03-27T16:25:51.266Z,2848.00
2019-03-27T16:27:03.727Z,2728.00
2019-03-27T16:27:52.215Z,2712.00
2019-03-27T16:28:51.223Z,2716.00
2019-03-27T16:29:51.176Z,2736.00
2019-03-27T16:30:51.240Z,2876.00
2019-03-27T16:31:51.166Z,2984.00
2019-03-27T16:32:51.168Z,3052.00
2019-03-27T16:33:51.223Z,3136.00
2019-03-27T16:34:51.123Z,3240.00
2019-03-27T16:35:51.186Z,3328.00
2019-03-27T16:36:54.128Z,3376.00
2019-03-27T16:37:51.097Z,3412.00
2019-03-27T16:38:51.065Z,3384.00
2019-03-27T16:39:51.066Z,3400.00
2019-03-27T16:40:51.099Z,3368.00
2019-03-27T16:41:51.036Z,3224.00
2019-03-27T16:42:51.030Z,3104.00
2019-03-27T16:43:51.038Z,3024.00
2019-03-27T16:44:51.029Z,2984.00
2019-03-27T16:45:51.019Z,2972.00
2019-03-27T16:46:50.975Z,2952.00
2019-03-27T16:47:50.970Z,2936.00
2019-03-27T16:48:50.985Z,2916.00
2019-03-27T16:49:50.970Z,2908.00
2019-03-27T16:50:50.999Z,2900.00
2019-03-27T16:51:50.939Z,2888.00
2019-03-27T16:53:03.170Z,2880.00
2019-03-27T16:53:51.930Z,2884.00
2019-03-27T16:54:50.903Z,2880.00
2019-03-27T16:55:50.899Z,2868.00
2019-03-27T16:56:50.895Z,2848.00
2019-03-27T16:57:51.419Z,2820.00
2019-03-27T16:58:50.864Z,2780.00
2019-03-27T16:59:50.851Z,2724.00
2019-03-27T17:00:50.847Z,2672.00
2019-03-27T17:01:50.863Z,2612.00
2019-03-27T17:02:50.840Z,2520.00
2019-03-27T17:03:50.795Z,2440.00
2019-03-27T17:04:50.816Z,2364.00
2019-03-27T17:05:54.293Z,2280.00
2019-03-27T17:06:50.791Z,2180.00
2019-03-27T17:07:50.813Z,2084.00
2019-03-27T17:08:50.785Z,1996.00
2019-03-27T17:09:50.749Z,1928.00
2019-03-27T17:10:50.735Z,1868.00
2019-03-27T17:11:50.772Z,1804.00
2019-03-27T17:12:50.724Z,1760.00
2019-03-27T17:13:50.692Z,1700.00
2019-03-27T17:14:50.692Z,1636.00
2019-03-27T17:15:50.683Z,1568.00
2019-03-27T17:16:50.716Z,1512.00
2019-03-27T17:17:50.662Z,1472.00
2019-03-27T17:18:50.749Z,1428.00
2019-03-27T17:19:50.613Z,1396.00
2019-03-27T17:20:50.638Z,1376.00
2019-03-27T17:21:50.692Z,1352.00
2019-03-27T17:22:50.602Z,1324.00
2019-03-27T17:23:50.609Z,1288.00
2019-03-27T17:24:50.624Z,1244.00
2019-03-27T17:25:50.678Z,1196.00
2019-03-27T17:26:50.605Z,1156.00
2019-03-27T17:27:50.581Z,1108.00
2019-03-27T17:28:50.546Z,1060.00
2019-03-27T17:29:50.537Z,1008.00
2019-03-27T17:30:50.536Z,960.00
2019-03-27T17:31:50.516Z,908.00
2019-03-27T17:32:50.483Z,864.00
2019-03-27T17:33:50.483Z,820.00
2019-03-27T17:34:51.908Z,776.00
2019-03-27T17:35:50.463Z,736.00
2019-03-27T17:36:50.617Z,696.00
2019-03-27T17:37:50.441Z,660.00
2019-03-27T17:38:50.439Z,624.00
2019-03-27T17:39:50.413Z,584.00
2019-03-27T17:40:50.407Z,544.00
2019-03-27T17:41:50.437Z,508.00
2019-03-27T17:42:50.410Z,472.00
2019-03-27T17:43:50.439Z,436.00
2019-03-27T17:44:52.093Z,408.00
2019-03-27T17:45:50.354Z,372.00
2019-03-27T17:46:50.448Z,344.00
2019-03-27T17:47:50.370Z,316.00
2019-03-27T17:48:50.361Z,288.00
2019-03-27T17:49:50.310Z,268.00
2019-03-27T17:50:50.304Z,240.00
2019-03-27T17:51:50.334Z,220.00
2019-03-27T17:52:50.286Z,196.00
2019-03-27T17:53:50.289Z,176.00
2019-03-27T17:54:50.258Z,152.00
2019-03-27T17:55:50.253Z,132.00
2019-03-27T17:56:50.250Z,116.00
2019-03-27T17:57:50.300Z,100.00
2019-03-27T17:58:50.260Z,88.00
2019-03-27T17:59:50.228Z,80.00
2019-03-27T18:00:50.177Z,68.00
2019-03-27T18:01:50.244Z,60.00
2019-03-27T18:02:50.181Z,52.00
2019-03-27T18:03:50.166Z,44.00
2019-03-27T18:04:50.133Z,36.00
2019-03-27T18:05:50.117Z,28.00
2019-03-27T18:06:50.184Z,24.00
2019-03-27T18:07:50.128Z,24.00
2019-03-27T18:08:50.122Z,20.00
2019-03-27T18:09:50.100Z,16.00
2019-03-27T18:10:50.091Z,12.00
2019-03-27T18:11:50.146Z,12.00
2019-03-27T18:12:50.075Z,12.00
2019-03-27T18:13:50.082Z,12.00
2019-03-27T18:14:50.054Z,4.00
2019-03-27T18:15:50.030Z,8.00
2019-03-27T18:16:50.077Z,4.00
2019-03-27T18:17:50.037Z,4.00
2019-03-27T18:18:50.035Z,4.00
2019-03-27T18:19:49.992Z,0.00
2019-03-27T18:20:49.989Z,4.00
2019-03-27T18:21:50.006Z,4.00
2019-03-27T18:22:50.016Z,4.00
2019-03-27T18:23:49.964Z,0.00
2019-03-27T18:24:49.966Z,4.00
2019-03-27T18:25:49.939Z,4.00
2019-03-27T18:26:49.948Z,0.00
2019-03-27T18:27:49.956Z,0.00
2019-03-27T18:28:49.891Z,0.00
2019-03-27T18:29:49.867Z,0.00
2019-03-27T18:30:49.887Z,0.00
2019-03-27T18:31:49.909Z,0.00
2019-03-27T18:32:49.871Z,0.00
2019-03-27T18:33:49.848Z,0.00
2019-03-27T18:34:49.821Z,0.00
2019-03-27T18:35:49.835Z,0.00
2019-03-27T18:36:49.853Z,0.00
2019-03-27T18:37:49.995Z,0.00
2019-03-27T18:38:49.808Z,0.00
2019-03-27T18:39:49.796Z,0.00
2019-03-27T18:40:49.755Z,0.00
2019-03-27T18:41:49.785Z,0.00
2019-03-27T18:42:49.800Z,0.00
2019-03-27T18:43:49.747Z,0.00
2019-03-27T18:44:49.774Z,0.00
2019-03-27T18:45:49.765Z,0.00
2019-03-27T18:46:49.714Z,0.00
2019-03-27T18:47:49.734Z,0.00
2019-03-27T18:48:49.698Z,0.00
2019-03-27T18:49:49.690Z,0.00
2019-03-27T18:50:49.638Z,0.00
2019-03-27T18:51:49.719Z,0.00
2019-03-27T18:52:49.674Z,0.00
2019-03-27T18:53:59.385Z,0.00
2019-03-27T18:54:50.680Z,0.00
2019-03-27T18:55:49.660Z,0.00
2019-03-27T18:56:49.686Z,0.00
2019-03-27T18:57:59.935Z,0.00
2019-03-27T18:58:50.608Z,0.00
2019-03-27T18:59:49.543Z,0.00
2019-03-27T19:00:49.558Z,0.00
2019-03-27T19:01:49.578Z,0.00
2019-03-27T19:02:49.567Z,0.00
2019-03-27T19:03:49.643Z,0.00
2019-03-27T19:04:49.529Z,0.00
2019-03-27T19:05:49.542Z,0.00
2019-03-27T19:06:49.527Z,0.00
2019-03-27T19:07:49.509Z,0.00
2019-03-27T19:08:49.475Z,0.00
2019-03-27T19:09:49.484Z,0.00
2019-03-27T19:10:49.471Z,0.00
2019-03-27T19:11:49.428Z,0.00
2019-03-27T19:12:49.441Z,0.00
2019-03-27T19:13:49.418Z,0.00
2019-03-27T19:14:49.424Z,0.00
2019-03-27T19:15:49.384Z,0.00
2019-03-27T19:16:49.380Z,0.00
2019-03-27T19:17:49.431Z,0.00
2019-03-27T19:18:49.361Z,0.00
2019-03-27T19:19:49.341Z,0.00
2019-03-27T19:20:49.355Z,0.00
2019-03-27T19:21:49.330Z,0.00
2019-03-27T19:22:49.367Z,0.00
2019-03-27T19:23:49.340Z,0.00
2019-03-27T19:24:49.311Z,0.00
2019-03-27T19:25:49.308Z,0.00
2019-03-27T19:26:49.265Z,0.00
2019-03-27T19:27:49.308Z,0.00
2019-03-27T19:28:49.271Z,0.00
2019-03-27T19:29:49.260Z,0.00
2019-03-27T19:30:49.225Z,0.00
2019-03-27T19:31:49.250Z,0.00
2019-03-27T19:32:49.246Z,0.00
2019-03-27T19:33:49.187Z,0.00
2019-03-27T19:34:51.137Z,0.00
2019-03-27T19:35:49.189Z,0.00
2019-03-27T19:36:49.163Z,0.00
2019-03-27T19:37:49.169Z,0.00
2019-03-27T19:38:49.184Z,0.00
2019-03-27T19:39:49.142Z,0.00
2019-03-27T19:40:49.135Z,0.00
2019-03-27T19:41:49.120Z,0.00
2019-03-27T19:42:49.172Z,0.00
2019-03-27T19:43:49.120Z,0.00
2019-03-27T19:44:49.066Z,0.00
2019-03-27T19:45:49.070Z,0.00
2019-03-27T19:46:49.094Z,0.00
2019-03-27T19:47:49.054Z,0.00
2019-03-27T19:48:49.034Z,0.00
2019-03-27T19:49:49.032Z,0.00
2019-03-27T19:50:49.052Z,0.00
2019-03-27T19:51:49.023Z,0.00
2019-03-27T19:52:49.038Z,0.00
2019-03-27T19:53:49.002Z,0.00
2019-03-27T19:54:48.972Z,0.00
2019-03-27T19:55:48.925Z,0.00
2019-03-27T19:56:48.942Z,0.00
2019-03-27T19:57:48.963Z,0.00
2019-03-27T19:58:49.011Z,0.00
2019-03-27T19:59:48.927Z,0.00
2019-03-27T20:00:48.877Z,0.00
2019-03-27T20:01:48.955Z,0.00
2019-03-27T20:02:48.915Z,0.00
2019-03-27T20:03:48.867Z,0.00
2019-03-27T20:04:48.893Z,0.00
2019-03-27T20:05:48.868Z,0.00
2019-03-27T20:06:48.841Z,0.00
2019-03-27T20:07:48.827Z,0.00
2019-03-27T20:08:48.800Z,0.00
2019-03-27T20:09:48.783Z,0.00
2019-03-27T20:10:48.787Z,0.00
2019-03-27T20:11:48.970Z,0.00
2019-03-27T20:12:48.814Z,0.00
2019-03-27T20:13:48.800Z,0.00
2019-03-27T20:14:48.779Z,0.00
2019-03-27T20:15:48.772Z,0.00
2019-03-27T20:16:48.750Z,0.00
2019-03-27T20:17:48.818Z,0.00
2019-03-27T20:18:48.706Z,0.00
2019-03-27T20:19:48.723Z,0.00
2019-03-27T20:20:48.776Z,0.00
2019-03-27T20:21:48.688Z,0.00
2019-03-27T20:22:51.640Z,0.00
2019-03-27T20:23:48.653Z,0.00
2019-03-27T20:24:48.657Z,0.00
2019-03-27T20:25:48.648Z,0.00
2019-03-27T20:26:48.617Z,0.00
2019-03-27T20:27:51.047Z,0.00
2019-03-27T20:28:48.614Z,0.00
2019-03-27T20:29:48.564Z,0.00
2019-03-27T20:30:48.603Z,0.00
2019-03-27T20:31:48.549Z,0.00
2019-03-27T20:32:48.560Z,0.00
2019-03-27T20:33:48.563Z,0.00
2019-03-27T20:34:48.521Z,0.00
2019-03-27T20:35:48.531Z,0.00
2019-03-27T20:36:48.529Z,0.00
2019-03-27T20:37:48.548Z,0.00
2019-03-27T20:38:48.523Z,0.00
2019-03-27T20:39:48.504Z,0.00
2019-03-27T20:40:48.504Z,0.00
2019-03-27T20:41:48.471Z,0.00
2019-03-27T20:42:48.449Z,0.00
2019-03-27T20:43:48.506Z,0.00
2019-03-27T20:44:48.432Z,0.00
2019-03-27T20:45:48.425Z,0.00
2019-03-27T20:46:48.390Z,0.00
2019-03-27T20:47:48.402Z,0.00
2019-03-27T20:48:48.434Z,0.00
2019-03-27T20:49:48.387Z,0.00
2019-03-27T20:50:48.365Z,0.00
2019-03-27T20:51:48.333Z,0.00
2019-03-27T20:52:48.319Z,0.00
2019-03-27T20:53:48.349Z,0.00
2019-03-27T20:54:54.887Z,0.00
2019-03-27T20:55:49.278Z,0.00
2019-03-27T20:56:48.333Z,0.00
2019-03-27T20:57:48.325Z,0.00
2019-03-27T20:58:48.303Z,0.00
2019-03-27T20:59:48.289Z,0.00
2019-03-27T21:00:48.219Z,0.00
2019-03-27T21:01:48.231Z,0.00
2019-03-27T21:02:48.211Z,0.00
2019-03-27T21:03:48.216Z,0.00
2019-03-27T21:04:48.193Z,0.00
2019-03-27T21:05:48.179Z,0.00
2019-03-27T21:06:48.161Z,0.00
2019-03-27T21:07:48.199Z,0.00
2019-03-27T21:08:48.211Z,0.00
2019-03-27T21:09:48.180Z,0.00
2019-03-27T21:10:48.133Z,0.00
2019-03-27T21:11:48.126Z,0.00
2019-03-27T21:12:48.131Z,0.00
2019-03-27T21:13:48.140Z,0.00
2019-03-27T21:14:48.090Z,0.00
2019-03-27T21:15:48.069Z,0.00
2019-03-27T21:16:48.113Z,0.00
2019-03-27T21:17:48.067Z,0.00
2019-03-27T21:18:48.139Z,0.00
2019-03-27T21:19:48.036Z,0.00
2019-03-27T21:20:48.020Z,0.00
2019-03-27T21:21:48.034Z,0.00
2019-03-27T21:22:48.027Z,0.00
2019-03-27T21:23:48.097Z,0.00
2019-03-27T21:24:47.970Z,0.00
2019-03-27T21:25:47.972Z,0.00
2019-03-27T21:26:47.983Z,0.00
2019-03-27T21:27:47.924Z,0.00
2019-03-27T21:28:47.950Z,0.00
2019-03-27T21:29:47.922Z,0.00
2019-03-27T21:30:47.925Z,0.00
2019-03-27T21:31:47.958Z,0.00
2019-03-27T21:32:47.897Z,0.00
2019-03-27T21:33:47.905Z,0.00
2019-03-27T21:34:47.848Z,0.00
2019-03-27T21:35:47.873Z,0.00
2019-03-27T21:36:47.878Z,0.00
2019-03-27T21:37:47.860Z,0.00
2019-03-27T21:38:47.827Z,0.00
2019-03-27T21:39:47.855Z,0.00
2019-03-27T21:40:47.858Z,0.00
2019-03-27T21:41:47.807Z,0.00
2019-03-27T21:42:47.790Z,0.00
2019-03-27T21:43:47.812Z,0.00
2019-03-27T21:44:47.766Z,0.00
2019-03-27T21:45:47.746Z,0.00
2019-03-27T21:46:47.739Z,0.00
2019-03-27T21:47:48.271Z,0.00
2019-03-27T21:48:47.756Z,0.00
2019-03-27T21:49:47.686Z,0.00
2019-03-27T21:50:47.686Z,0.00
2019-03-27T21:51:47.676Z,0.00
2019-03-27T21:52:59.864Z,0.00
2019-03-27T21:53:50.753Z,0.00
2019-03-27T21:54:47.662Z,0.00
2019-03-27T21:55:47.636Z,0.00
2019-03-27T21:56:47.631Z,0.00
2019-03-27T21:57:47.620Z,0.00
2019-03-27T21:58:47.622Z,0.00
2019-03-27T21:59:47.687Z,0.00
2019-03-27T22:00:47.606Z,0.00
2019-03-27T22:01:47.608Z,0.00
2019-03-27T22:02:47.572Z,0.00
2019-03-27T22:03:47.602Z,0.00
2019-03-27T22:04:47.559Z,0.00
2019-03-27T22:05:47.514Z,0.00
2019-03-27T22:06:47.527Z,0.00
2019-03-27T22:07:47.491Z,0.00
2019-03-27T22:08:47.530Z,0.00
2019-03-27T22:09:47.502Z,0.00
2019-03-27T22:10:47.478Z,0.00
2019-03-27T22:11:47.475Z,0.00
2019-03-27T22:12:47.437Z,0.00
2019-03-27T22:13:47.474Z,0.00
2019-03-27T22:14:47.437Z,0.00
2019-03-27T22:15:47.458Z,0.00
2019-03-27T22:16:47.413Z,0.00
2019-03-27T22:17:47.387Z,0.00
2019-03-27T22:18:47.417Z,0.00
2019-03-27T22:19:47.389Z,0.00
2019-03-27T22:20:47.386Z,0.00
2019-03-27T22:21:47.358Z,0.00
2019-03-27T22:22:47.343Z,0.00
2019-03-27T22:23:47.354Z,0.00
2019-03-27T22:24:47.323Z,0.00
2019-03-27T22:25:47.302Z,0.00
2019-03-27T22:26:47.280Z,0.00
2019-03-27T22:27:47.299Z,0.00
2019-03-27T22:28:47.299Z,0.00
2019-03-27T22:29:47.259Z,0.00
2019-03-27T22:30:47.269Z,0.00
2019-03-27T22:31:47.238Z,0.00
2019-03-27T22:32:47.234Z,0.00
2019-03-27T22:33:47.298Z,0.00
2019-03-27T22:34:47.212Z,0.00
2019-03-27T22:35:47.189Z,0.00
2019-03-27T22:36:47.199Z,0.00
2019-03-27T22:37:47.195Z,0.00
2019-03-27T22:38:47.181Z,0.00
2019-03-27T22:39:47.188Z,0.00
2019-03-27T22:40:47.143Z,0.00
2019-03-27T22:41:47.151Z,0.00
2019-03-27T22:42:47.131Z,0.00
2019-03-27T22:43:47.109Z,0.00
2019-03-27T22:44:47.121Z,0.00
2019-03-27T22:45:47.085Z,0.00
2019-03-27T22:46:47.128Z,0.00
2019-03-27T22:47:47.066Z,0.00
2019-03-27T22:48:47.050Z,0.00
2019-03-27T22:49:47.118Z,0.00